Prachuap Khirikhan, Thailand
Current Conditions -  °F | °C
As of 3:00 PM on Wednesday 22 Oct 2014 (Local Time) from VTBU Reporting Station
Broken Clouds Broken Clouds  
Wind Chill: 84°   Ceiling: 30000
Heat Index: 96°   Visibility: 2.5mi
Dew Point: 79°   Wind: 7mph
Humidity: 84%   Direction: 340°NNW
Pressure: 29.8"   Gusts: NA
Location:  11.83°N, 99.83°E
Report Text: VTBU 220800Z 34006KT 4000 TSBR FEW018CB SCT035 BKN300 29/26 Q1009 A2981 TS N-NT LTG
Loading
Personal Weather Stations






























Interactive Weather Map
Tropical Storm Tracking
New forecast layout! Learn more

10-Day Weather Forecast

Advertisements
Track Severe Weather on mobile